sensor_id;sensor_type;location;lat;lon;timestamp;P1;durP1;ratioP1;P2;durP2;ratioP2
75798;SDS011;65035;44.726;37.764;2023-04-03T00:00:16;1.25;;;1.15;;
75798;SDS011;65035;44.726;37.764;2023-04-03T00:01:19;1.15;;;0.00;;
75798;SDS011;65035;44.726;37.764;2023-04-03T00:02:22;1.17;;;0.30;;
75798;SDS011;65035;44.726;37.764;2023-04-03T00:03:26;1.20;;;0.20;;
75798;SDS011;65035;44.726;37.764;2023-04-03T00:04:29;0.90;;;0.03;;
75798;SDS011;65035;44.726;37.764;2023-04-03T00:06:21;0.98;;;0.88;;
75798;SDS011;65035;44.726;37.764;2023-04-03T00:07:25;1.35;;;1.25;;
75798;SDS011;65035;44.726;37.764;2023-04-03T00:08:28;3.53;;;1.60;;
75798;SDS011;65035;44.726;37.764;2023-04-03T00:09:33;1.60;;;1.35;;
75798;SDS011;65035;44.726;37.764;2023-04-03T00:10:36;1.33;;;1.23;;
75798;SDS011;65035;44.726;37.764;2023-04-03T00:11:40;1.52;;;1.40;;
75798;SDS011;65035;44.726;37.764;2023-04-03T00:12:43;1.63;;;1.52;;
75798;SDS011;65035;44.726;37.764;2023-04-03T00:13:46;1.50;;;1.40;;
75798;SDS011;65035;44.726;37.764;2023-04-03T00:14:49;1.08;;;0.95;;
75798;SDS011;65035;44.726;37.764;2023-04-03T00:15:52;1.60;;;0.98;;
75798;SDS011;65035;44.726;37.764;2023-04-03T00:18:31;1.52;;;0.98;;
75798;SDS011;65035;44.726;37.764;2023-04-03T00:19:35;1.52;;;1.33;;
75798;SDS011;65035;44.726;37.764;2023-04-03T00:21:26;0.85;;;0.38;;
75798;SDS011;65035;44.726;37.764;2023-04-03T00:23:21;0.45;;;0.10;;
75798;SDS011;65035;44.726;37.764;2023-04-03T00:24:25;0.85;;;0.32;;
75798;SDS011;65035;44.726;37.764;2023-04-03T00:25:29;0.80;;;0.10;;
75798;SDS011;65035;44.726;37.764;2023-04-03T00:28:08;0.90;;;0.20;;
75798;SDS011;65035;44.726;37.764;2023-04-03T00:30:55;1.70;;;1.27;;
75798;SDS011;65035;44.726;37.764;2023-04-03T00:31:58;1.55;;;1.45;;
75798;SDS011;65035;44.726;37.764;2023-04-03T00:33:01;1.88;;;1.77;;
75798;SDS011;65035;44.726;37.764;2023-04-03T00:34:04;1.58;;;1.48;;
75798;SDS011;65035;44.726;37.764;2023-04-03T00:35:08;1.35;;;1.25;;
75798;SDS011;65035;44.726;37.764;2023-04-03T00:36:12;1.83;;;1.58;;
75798;SDS011;65035;44.726;37.764;2023-04-03T00:37:15;1.25;;;1.15;;
75798;SDS011;65035;44.726;37.764;2023-04-03T00:38:18;1.50;;;1.20;;
75798;SDS011;65035;44.726;37.764;2023-04-03T00:39:22;1.70;;;1.60;;
75798;SDS011;65035;44.726;37.764;2023-04-03T00:40:26;1.55;;;1.45;;
75798;SDS011;65035;44.726;37.764;2023-04-03T00:41:30;1.45;;;1.35;;
75798;SDS011;65035;44.726;37.764;2023-04-03T00:43:23;1.17;;;0.10;;
75798;SDS011;65035;44.726;37.764;2023-04-03T00:45:47;1.55;;;1.05;;
75798;SDS011;65035;44.726;37.764;2023-04-03T00:46:52;1.60;;;1.50;;
75798;SDS011;65035;44.726;37.764;2023-04-03T00:48:59;2.13;;;1.20;;
75798;SDS011;65035;44.726;37.764;2023-04-03T00:51:06;1.02;;;0.93;;
75798;SDS011;65035;44.726;37.764;2023-04-03T00:52:31;1.60;;;1.50;;
75798;SDS011;65035;44.726;37.764;2023-04-03T00:53:39;1.90;;;1.23;;
75798;SDS011;65035;44.726;37.764;2023-04-03T00:54:47;1.30;;;1.13;;
75798;SDS011;65035;44.726;37.764;2023-04-03T00:55:53;1.73;;;1.45;;
75798;SDS011;65035;44.726;37.764;2023-04-03T00:56:58;1.50;;;1.40;;
75798;SDS011;65035;44.726;37.764;2023-04-03T00:58:54;0.80;;;0.25;;
75798;SDS011;65035;44.726;37.764;2023-04-03T01:00:06;0.60;;;0.25;;
75798;SDS011;65035;44.726;37.764;2023-04-03T01:01:12;0.80;;;0.32;;
75798;SDS011;65035;44.726;37.764;2023-04-03T01:03:58;0.68;;;0.20;;
75798;SDS011;65035;44.726;37.764;2023-04-03T01:05:04;0.73;;;0.10;;
75798;SDS011;65035;44.726;37.764;2023-04-03T01:06:09;1.00;;;0.50;;
75798;SDS011;65035;44.726;37.764;2023-04-03T01:07:17;0.75;;;0.10;;
75798;SDS011;65035;44.726;37.764;2023-04-03T01:08:25;1.15;;;0.10;;
75798;SDS011;65035;44.726;37.764;2023-04-03T01:09:29;0.70;;;0.10;;
75798;SDS011;65035;44.726;37.764;2023-04-03T01:11:28;1.45;;;0.35;;
75798;SDS011;65035;44.726;37.764;2023-04-03T01:12:35;1.15;;;0.28;;
75798;SDS011;65035;44.726;37.764;2023-04-03T01:13:40;0.65;;;0.30;;
75798;SDS011;65035;44.726;37.764;2023-04-03T01:14:44;1.38;;;0.20;;
75798;SDS011;65035;44.726;37.764;2023-04-03T01:15:48;0.88;;;0.28;;
75798;SDS011;65035;44.726;37.764;2023-04-03T01:17:59;0.55;;;0.13;;
75798;SDS011;65035;44.726;37.764;2023-04-03T01:19:52;0.93;;;0.10;;
75798;SDS011;65035;44.726;37.764;2023-04-03T01:22:18;1.40;;;1.30;;
75798;SDS011;65035;44.726;37.764;2023-04-03T01:25:04;1.60;;;1.10;;
75798;SDS011;65035;44.726;37.764;2023-04-03T01:28:47;1.15;;;0.10;;
75798;SDS011;65035;44.726;37.764;2023-04-03T01:29:50;1.10;;;0.08;;
75798;SDS011;65035;44.726;37.764;2023-04-03T01:32:47;0.65;;;0.22;;
75798;SDS011;65035;44.726;37.764;2023-04-03T01:33:50;0.73;;;0.30;;
75798;SDS011;65035;44.726;37.764;2023-04-03T01:34:54;0.77;;;0.13;;
75798;SDS011;65035;44.726;37.764;2023-04-03T01:37:00;0.90;;;0.38;;
75798;SDS011;65035;44.726;37.764;2023-04-03T01:38:03;0.93;;;0.30;;
75798;SDS011;65035;44.726;37.764;2023-04-03T01:39:07;2.58;;;0.55;;
75798;SDS011;65035;44.726;37.764;2023-04-03T01:40:10;1.15;;;0.47;;
75798;SDS011;65035;44.726;37.764;2023-04-03T01:41:13;0.95;;;0.55;;
75798;SDS011;65035;44.726;37.764;2023-04-03T01:42:19;0.75;;;0.22;;
75798;SDS011;65035;44.726;37.764;2023-04-03T01:43:22;1.40;;;0.45;;
75798;SDS011;65035;44.726;37.764;2023-04-03T01:45:13;1.08;;;0.13;;
75798;SDS011;65035;44.726;37.764;2023-04-03T01:46:16;0.63;;;0.13;;
75798;SDS011;65035;44.726;37.764;2023-04-03T01:47:21;2.00;;;0.90;;
75798;SDS011;65035;44.726;37.764;2023-04-03T01:48:25;1.85;;;0.13;;
75798;SDS011;65035;44.726;37.764;2023-04-03T01:50:17;2.60;;;1.25;;
75798;SDS011;65035;44.726;37.764;2023-04-03T01:52:08;1.42;;;0.22;;
75798;SDS011;65035;44.726;37.764;2023-04-03T01:53:12;1.38;;;0.45;;
75798;SDS011;65035;44.726;37.764;2023-04-03T01:55:51;1.02;;;0.32;;
75798;SDS011;65035;44.726;37.764;2023-04-03T01:59:34;0.80;;;0.20;;
75798;SDS011;65035;44.726;37.764;2023-04-03T02:01:33;1.23;;;0.30;;
75798;SDS011;65035;44.726;37.764;2023-04-03T02:02:36;0.82;;;0.10;;
75798;SDS011;65035;44.726;37.764;2023-04-03T02:03:39;1.10;;;0.20;;
75798;SDS011;65035;44.726;37.764;2023-04-03T02:04:42;2.50;;;0.13;;
75798;SDS011;65035;44.726;37.764;2023-04-03T02:05:45;1.20;;;0.57;;
75798;SDS011;65035;44.726;37.764;2023-04-03T02:06:48;0.55;;;0.03;;
75798;SDS011;65035;44.726;37.764;2023-04-03T02:08:40;2.95;;;1.65;;
75798;SDS011;65035;44.726;37.764;2023-04-03T02:09:44;1.48;;;1.38;;
75798;SDS011;65035;44.726;37.764;2023-04-03T02:10:47;1.58;;;1.17;;
75798;SDS011;65035;44.726;37.764;2023-04-03T02:11:52;1.55;;;1.45;;
75798;SDS011;65035;44.726;37.764;2023-04-03T02:12:55;2.47;;;1.30;;
75798;SDS011;65035;44.726;37.764;2023-04-03T02:14:00;1.70;;;1.60;;
75798;SDS011;65035;44.726;37.764;2023-04-03T02:15:03;1.38;;;1.13;;
75798;SDS011;65035;44.726;37.764;2023-04-03T02:16:09;1.63;;;1.52;;
75798;SDS011;65035;44.726;37.764;2023-04-03T02:17:12;2.20;;;1.70;;
75798;SDS011;65035;44.726;37.764;2023-04-03T02:19:03;1.20;;;0.13;;
75798;SDS011;65035;44.726;37.764;2023-04-03T02:21:57;1.10;;;0.32;;
75798;SDS011;65035;44.726;37.764;2023-04-03T02:23:01;1.10;;;0.25;;
75798;SDS011;65035;44.726;37.764;2023-04-03T02:24:04;1.58;;;0.63;;
75798;SDS011;65035;44.726;37.764;2023-04-03T02:25:09;1.55;;;0.60;;
75798;SDS011;65035;44.726;37.764;2023-04-03T02:27:56;1.48;;;0.08;;
75798;SDS011;65035;44.726;37.764;2023-04-03T02:28:59;1.02;;;0.10;;
75798;SDS011;65035;44.726;37.764;2023-04-03T02:30:03;0.98;;;0.10;;
75798;SDS011;65035;44.726;37.764;2023-04-03T02:32:17;1.35;;;0.17;;
75798;SDS011;65035;44.726;37.764;2023-04-03T02:34:09;1.48;;;1.38;;
75798;SDS011;65035;44.726;37.764;2023-04-03T02:36:08;1.50;;;1.40;;
75798;SDS011;65035;44.726;37.764;2023-04-03T02:37:14;2.45;;;1.65;;
75798;SDS011;65035;44.726;37.764;2023-04-03T02:38:20;1.80;;;1.63;;
75798;SDS011;65035;44.726;37.764;2023-04-03T02:39:24;2.35;;;1.75;;
75798;SDS011;65035;44.726;37.764;2023-04-03T02:40:28;1.80;;;1.70;;
75798;SDS011;65035;44.726;37.764;2023-04-03T02:41:31;1.42;;;1.33;;
75798;SDS011;65035;44.726;37.764;2023-04-03T02:42:41;1.95;;;1.65;;
75798;SDS011;65035;44.726;37.764;2023-04-03T02:43:44;1.83;;;1.42;;
75798;SDS011;65035;44.726;37.764;2023-04-03T02:44:47;1.30;;;1.20;;
75798;SDS011;65035;44.726;37.764;2023-04-03T02:45:50;2.03;;;1.27;;
75798;SDS011;65035;44.726;37.764;2023-04-03T02:46:53;1.98;;;1.83;;
75798;SDS011;65035;44.726;37.764;2023-04-03T02:47:57;2.78;;;2.33;;
75798;SDS011;65035;44.726;37.764;2023-04-03T02:49:00;1.77;;;1.67;;
75798;SDS011;65035;44.726;37.764;2023-04-03T02:50:04;1.40;;;1.30;;
75798;SDS011;65035;44.726;37.764;2023-04-03T02:52:03;1.52;;;0.40;;
75798;SDS011;65035;44.726;37.764;2023-04-03T02:53:06;1.98;;;0.32;;
75798;SDS011;65035;44.726;37.764;2023-04-03T02:54:11;1.33;;;0.40;;
75798;SDS011;65035;44.726;37.764;2023-04-03T02:55:17;1.23;;;0.38;;
75798;SDS011;65035;44.726;37.764;2023-04-03T02:56:23;1.50;;;0.10;;
75798;SDS011;65035;44.726;37.764;2023-04-03T02:57:26;1.25;;;0.25;;
75798;SDS011;65035;44.726;37.764;2023-04-03T02:58:29;1.45;;;0.32;;
75798;SDS011;65035;44.726;37.764;2023-04-03T02:59:34;1.10;;;0.15;;
75798;SDS011;65035;44.726;37.764;2023-04-03T03:00:44;1.50;;;0.20;;
75798;SDS011;65035;44.726;37.764;2023-04-03T03:01:47;2.15;;;0.43;;
75798;SDS011;65035;44.726;37.764;2023-04-03T03:02:50;1.20;;;0.35;;
75798;SDS011;65035;44.726;37.764;2023-04-03T03:03:53;1.95;;;0.32;;
75798;SDS011;65035;44.726;37.764;2023-04-03T03:04:56;1.90;;;0.85;;
75798;SDS011;65035;44.726;37.764;2023-04-03T03:06:03;0.80;;;0.10;;
75798;SDS011;65035;44.726;37.764;2023-04-03T03:07:14;1.00;;;0.20;;
75798;SDS011;65035;44.726;37.764;2023-04-03T03:08:17;1.10;;;0.10;;
75798;SDS011;65035;44.726;37.764;2023-04-03T03:09:22;1.75;;;0.32;;
75798;SDS011;65035;44.726;37.764;2023-04-03T03:10:25;0.75;;;0.10;;
75798;SDS011;65035;44.726;37.764;2023-04-03T03:11:28;1.58;;;0.25;;
75798;SDS011;65035;44.726;37.764;2023-04-03T03:12:31;1.58;;;0.20;;
75798;SDS011;65035;44.726;37.764;2023-04-03T03:13:34;1.63;;;1.52;;
75798;SDS011;65035;44.726;37.764;2023-04-03T03:14:37;2.53;;;0.22;;
75798;SDS011;65035;44.726;37.764;2023-04-03T03:15:40;1.30;;;0.40;;
75798;SDS011;65035;44.726;37.764;2023-04-03T03:16:45;1.13;;;0.30;;
75798;SDS011;65035;44.726;37.764;2023-04-03T03:17:48;1.33;;;0.32;;
75798;SDS011;65035;44.726;37.764;2023-04-03T03:18:51;1.48;;;0.43;;
75798;SDS011;65035;44.726;37.764;2023-04-03T03:19:53;1.65;;;0.17;;
75798;SDS011;65035;44.726;37.764;2023-04-03T03:20:57;1.00;;;0.30;;
75798;SDS011;65035;44.726;37.764;2023-04-03T03:22:02;1.70;;;0.52;;
75798;SDS011;65035;44.726;37.764;2023-04-03T03:23:04;1.30;;;0.38;;
75798;SDS011;65035;44.726;37.764;2023-04-03T03:24:07;1.85;;;0.30;;
75798;SDS011;65035;44.726;37.764;2023-04-03T03:25:10;1.90;;;0.50;;
75798;SDS011;65035;44.726;37.764;2023-04-03T03:26:14;1.33;;;0.20;;
75798;SDS011;65035;44.726;37.764;2023-04-03T03:27:17;1.95;;;0.40;;
75798;SDS011;65035;44.726;37.764;2023-04-03T03:28:20;1.98;;;1.42;;
75798;SDS011;65035;44.726;37.764;2023-04-03T03:29:23;2.05;;;0.63;;
75798;SDS011;65035;44.726;37.764;2023-04-03T03:30:26;1.35;;;0.50;;
75798;SDS011;65035;44.726;37.764;2023-04-03T03:31:29;1.45;;;0.35;;
75798;SDS011;65035;44.726;37.764;2023-04-03T03:32:32;2.65;;;0.47;;
75798;SDS011;65035;44.726;37.764;2023-04-03T03:33:36;2.15;;;0.30;;
75798;SDS011;65035;44.726;37.764;2023-04-03T03:34:39;2.42;;;0.35;;
75798;SDS011;65035;44.726;37.764;2023-04-03T03:35:42;2.00;;;0.30;;
75798;SDS011;65035;44.726;37.764;2023-04-03T03:36:48;1.92;;;0.30;;
75798;SDS011;65035;44.726;37.764;2023-04-03T03:37:51;1.40;;;0.52;;
75798;SDS011;65035;44.726;37.764;2023-04-03T03:38:54;1.30;;;0.50;;
75798;SDS011;65035;44.726;37.764;2023-04-03T03:39:58;1.73;;;0.30;;
75798;SDS011;65035;44.726;37.764;2023-04-03T03:41:00;1.65;;;0.60;;
75798;SDS011;65035;44.726;37.764;2023-04-03T03:42:05;1.58;;;0.22;;
75798;SDS011;65035;44.726;37.764;2023-04-03T03:43:08;2.53;;;0.32;;
75798;SDS011;65035;44.726;37.764;2023-04-03T03:44:11;1.98;;;0.50;;
75798;SDS011;65035;44.726;37.764;2023-04-03T03:45:14;1.95;;;0.70;;
75798;SDS011;65035;44.726;37.764;2023-04-03T03:46:17;1.42;;;0.43;;
75798;SDS011;65035;44.726;37.764;2023-04-03T03:47:19;2.75;;;0.80;;
75798;SDS011;65035;44.726;37.764;2023-04-03T03:48:23;2.15;;;0.73;;
75798;SDS011;65035;44.726;37.764;2023-04-03T03:49:26;1.88;;;0.50;;
75798;SDS011;65035;44.726;37.764;2023-04-03T03:50:29;1.73;;;0.38;;
75798;SDS011;65035;44.726;37.764;2023-04-03T03:52:20;2.38;;;2.08;;
75798;SDS011;65035;44.726;37.764;2023-04-03T03:53:23;3.35;;;2.25;;
75798;SDS011;65035;44.726;37.764;2023-04-03T03:54:30;2.28;;;1.35;;
75798;SDS011;65035;44.726;37.764;2023-04-03T03:55:32;2.20;;;1.40;;
75798;SDS011;65035;44.726;37.764;2023-04-03T03:56:35;2.42;;;2.10;;
75798;SDS011;65035;44.726;37.764;2023-04-03T03:57:38;1.95;;;1.25;;
75798;SDS011;65035;44.726;37.764;2023-04-03T03:58:42;2.42;;;1.48;;
75798;SDS011;65035;44.726;37.764;2023-04-03T03:59:45;2.95;;;1.67;;
75798;SDS011;65035;44.726;37.764;2023-04-03T04:00:50;2.55;;;1.90;;
75798;SDS011;65035;44.726;37.764;2023-04-03T04:01:53;2.67;;;1.75;;
75798;SDS011;65035;44.726;37.764;2023-04-03T04:02:57;2.72;;;2.25;;
75798;SDS011;65035;44.726;37.764;2023-04-03T04:04:01;2.03;;;1.83;;
75798;SDS011;65035;44.726;37.764;2023-04-03T04:05:05;3.15;;;2.20;;
75798;SDS011;65035;44.726;37.764;2023-04-03T04:06:09;3.97;;;2.08;;
75798;SDS011;65035;44.726;37.764;2023-04-03T04:08:00;2.60;;;0.55;;
75798;SDS011;65035;44.726;37.764;2023-04-03T04:09:03;1.38;;;0.57;;
75798;SDS011;65035;44.726;37.764;2023-04-03T04:10:06;2.70;;;1.00;;
75798;SDS011;65035;44.726;37.764;2023-04-03T04:11:09;2.22;;;0.50;;
75798;SDS011;65035;44.726;37.764;2023-04-03T04:12:13;3.17;;;0.77;;
75798;SDS011;65035;44.726;37.764;2023-04-03T04:13:16;2.90;;;1.23;;
75798;SDS011;65035;44.726;37.764;2023-04-03T04:14:20;2.72;;;0.57;;
75798;SDS011;65035;44.726;37.764;2023-04-03T04:15:24;1.30;;;0.38;;
75798;SDS011;65035;44.726;37.764;2023-04-03T04:16:29;2.95;;;0.55;;
75798;SDS011;65035;44.726;37.764;2023-04-03T04:17:36;1.85;;;0.98;;
75798;SDS011;65035;44.726;37.764;2023-04-03T04:18:42;2.67;;;1.35;;
75798;SDS011;65035;44.726;37.764;2023-04-03T04:19:45;1.88;;;0.95;;
75798;SDS011;65035;44.726;37.764;2023-04-03T04:20:48;1.70;;;0.57;;
75798;SDS011;65035;44.726;37.764;2023-04-03T04:21:52;2.17;;;0.82;;
75798;SDS011;65035;44.726;37.764;2023-04-03T04:22:55;2.05;;;0.73;;
75798;SDS011;65035;44.726;37.764;2023-04-03T04:23:59;2.10;;;1.10;;
75798;SDS011;65035;44.726;37.764;2023-04-03T04:25:02;4.75;;;0.93;;
75798;SDS011;65035;44.726;37.764;2023-04-03T04:26:05;2.60;;;0.85;;
75798;SDS011;65035;44.726;37.764;2023-04-03T04:27:10;1.98;;;0.73;;
75798;SDS011;65035;44.726;37.764;2023-04-03T04:28:13;1.58;;;0.35;;
75798;SDS011;65035;44.726;37.764;2023-04-03T04:29:17;2.05;;;0.65;;
75798;SDS011;65035;44.726;37.764;2023-04-03T04:30:23;2.35;;;0.55;;
75798;SDS011;65035;44.726;37.764;2023-04-03T04:31:26;1.88;;;0.55;;
75798;SDS011;65035;44.726;37.764;2023-04-03T04:32:29;2.03;;;0.45;;
75798;SDS011;65035;44.726;37.764;2023-04-03T04:34:38;2.67;;;0.63;;
75798;SDS011;65035;44.726;37.764;2023-04-03T04:35:41;2.80;;;0.50;;
75798;SDS011;65035;44.726;37.764;2023-04-03T04:36:46;3.35;;;0.95;;
75798;SDS011;65035;44.726;37.764;2023-04-03T04:37:49;3.85;;;0.75;;
75798;SDS011;65035;44.726;37.764;2023-04-03T04:38:52;2.58;;;0.82;;
75798;SDS011;65035;44.726;37.764;2023-04-03T04:39:57;3.20;;;0.93;;
75798;SDS011;65035;44.726;37.764;2023-04-03T04:41:00;2.45;;;0.52;;
75798;SDS011;65035;44.726;37.764;2023-04-03T04:42:04;2.78;;;1.33;;
75798;SDS011;65035;44.726;37.764;2023-04-03T04:43:07;4.22;;;0.75;;
75798;SDS011;65035;44.726;37.764;2023-04-03T04:44:10;2.65;;;0.47;;
75798;SDS011;65035;44.726;37.764;2023-04-03T04:45:13;2.30;;;0.73;;
75798;SDS011;65035;44.726;37.764;2023-04-03T04:46:19;3.72;;;1.27;;
75798;SDS011;65035;44.726;37.764;2023-04-03T04:47:28;3.05;;;0.52;;
75798;SDS011;65035;44.726;37.764;2023-04-03T04:48:31;2.30;;;0.57;;
75798;SDS011;65035;44.726;37.764;2023-04-03T04:49:35;3.58;;;0.57;;
75798;SDS011;65035;44.726;37.764;2023-04-03T04:50:38;2.53;;;0.38;;
75798;SDS011;65035;44.726;37.764;2023-04-03T04:51:41;3.25;;;0.40;;
75798;SDS011;65035;44.726;37.764;2023-04-03T04:52:51;2.00;;;0.65;;
75798;SDS011;65035;44.726;37.764;2023-04-03T04:54:42;2.85;;;0.52;;
75798;SDS011;65035;44.726;37.764;2023-04-03T04:55:44;2.30;;;0.43;;
75798;SDS011;65035;44.726;37.764;2023-04-03T04:56:48;2.67;;;0.35;;
75798;SDS011;65035;44.726;37.764;2023-04-03T04:57:51;2.60;;;0.32;;
75798;SDS011;65035;44.726;37.764;2023-04-03T04:58:55;1.75;;;0.30;;
75798;SDS011;65035;44.726;37.764;2023-04-03T04:59:59;2.75;;;0.35;;
75798;SDS011;65035;44.726;37.764;2023-04-03T05:01:03;3.00;;;0.30;;
75798;SDS011;65035;44.726;37.764;2023-04-03T05:02:13;5.60;;;0.85;;
75798;SDS011;65035;44.726;37.764;2023-04-03T05:03:18;1.45;;;0.32;;
75798;SDS011;65035;44.726;37.764;2023-04-03T05:04:21;1.58;;;0.15;;
75798;SDS011;65035;44.726;37.764;2023-04-03T05:05:29;2.10;;;0.20;;
75798;SDS011;65035;44.726;37.764;2023-04-03T05:06:31;2.03;;;0.30;;
75798;SDS011;65035;44.726;37.764;2023-04-03T05:07:35;2.63;;;0.30;;
75798;SDS011;65035;44.726;37.764;2023-04-03T05:08:38;2.53;;;0.15;;
75798;SDS011;65035;44.726;37.764;2023-04-03T05:09:41;2.38;;;0.30;;
75798;SDS011;65035;44.726;37.764;2023-04-03T05:10:46;1.85;;;0.32;;
75798;SDS011;65035;44.726;37.764;2023-04-03T05:11:50;2.90;;;0.40;;
75798;SDS011;65035;44.726;37.764;2023-04-03T05:12:57;2.70;;;0.28;;
75798;SDS011;65035;44.726;37.764;2023-04-03T05:15:04;2.45;;;0.40;;
75798;SDS011;65035;44.726;37.764;2023-04-03T05:16:07;4.32;;;1.90;;
75798;SDS011;65035;44.726;37.764;2023-04-03T05:17:10;1.52;;;0.28;;
75798;SDS011;65035;44.726;37.764;2023-04-03T05:18:17;2.70;;;0.10;;
75798;SDS011;65035;44.726;37.764;2023-04-03T05:19:20;1.30;;;0.50;;
75798;SDS011;65035;44.726;37.764;2023-04-03T05:20:23;1.80;;;0.40;;
75798;SDS011;65035;44.726;37.764;2023-04-03T05:21:27;1.92;;;0.15;;
75798;SDS011;65035;44.726;37.764;2023-04-03T05:22:38;2.00;;;0.55;;
75798;SDS011;65035;44.726;37.764;2023-04-03T05:24:54;2.42;;;0.60;;
75798;SDS011;65035;44.726;37.764;2023-04-03T05:25:58;1.77;;;0.22;;
75798;SDS011;65035;44.726;37.764;2023-04-03T05:27:03;2.45;;;0.43;;
75798;SDS011;65035;44.726;37.764;2023-04-03T05:28:09;1.63;;;0.20;;
75798;SDS011;65035;44.726;37.764;2023-04-03T05:30:16;1.42;;;0.40;;
75798;SDS011;65035;44.726;37.764;2023-04-03T05:31:19;3.15;;;0.30;;
75798;SDS011;65035;44.726;37.764;2023-04-03T05:32:23;1.25;;;0.30;;
75798;SDS011;65035;44.726;37.764;2023-04-03T05:33:40;1.38;;;0.38;;
75798;SDS011;65035;44.726;37.764;2023-04-03T05:34:47;2.55;;;0.47;;
75798;SDS011;65035;44.726;37.764;2023-04-03T05:35:50;1.75;;;1.20;;
75798;SDS011;65035;44.726;37.764;2023-04-03T05:36:58;1.40;;;0.52;;
75798;SDS011;65035;44.726;37.764;2023-04-03T05:38:02;1.20;;;0.20;;
75798;SDS011;65035;44.726;37.764;2023-04-03T05:39:06;0.95;;;0.20;;
75798;SDS011;65035;44.726;37.764;2023-04-03T05:40:12;2.03;;;0.80;;
75798;SDS011;65035;44.726;37.764;2023-04-03T05:41:18;1.58;;;0.40;;
75798;SDS011;65035;44.726;37.764;2023-04-03T05:42:21;1.27;;;0.10;;
75798;SDS011;65035;44.726;37.764;2023-04-03T05:43:24;2.08;;;0.30;;
75798;SDS011;65035;44.726;37.764;2023-04-03T05:44:27;2.38;;;0.20;;
75798;SDS011;65035;44.726;37.764;2023-04-03T05:45:31;1.80;;;0.60;;
75798;SDS011;65035;44.726;37.764;2023-04-03T05:46:34;1.40;;;0.25;;
75798;SDS011;65035;44.726;37.764;2023-04-03T05:47:40;1.83;;;0.30;;
75798;SDS011;65035;44.726;37.764;2023-04-03T05:49:31;1.60;;;0.68;;
75798;SDS011;65035;44.726;37.764;2023-04-03T05:50:34;1.58;;;0.32;;
75798;SDS011;65035;44.726;37.764;2023-04-03T05:51:38;1.90;;;0.45;;
75798;SDS011;65035;44.726;37.764;2023-04-03T05:52:50;2.55;;;0.30;;
75798;SDS011;65035;44.726;37.764;2023-04-03T05:54:03;2.20;;;0.32;;
75798;SDS011;65035;44.726;37.764;2023-04-03T05:55:12;1.92;;;0.47;;
75798;SDS011;65035;44.726;37.764;2023-04-03T05:56:15;1.77;;;0.30;;
75798;SDS011;65035;44.726;37.764;2023-04-03T05:57:18;1.35;;;0.60;;
75798;SDS011;65035;44.726;37.764;2023-04-03T05:58:21;1.98;;;0.60;;
75798;SDS011;65035;44.726;37.764;2023-04-03T05:59:25;1.35;;;0.25;;
75798;SDS011;65035;44.726;37.764;2023-04-03T06:00:31;1.40;;;0.43;;
75798;SDS011;65035;44.726;37.764;2023-04-03T06:01:36;1.95;;;0.25;;
75798;SDS011;65035;44.726;37.764;2023-04-03T06:02:40;1.52;;;0.47;;
75798;SDS011;65035;44.726;37.764;2023-04-03T06:03:49;1.23;;;0.20;;
75798;SDS011;65035;44.726;37.764;2023-04-03T06:04:52;1.85;;;0.73;;
75798;SDS011;65035;44.726;37.764;2023-04-03T06:05:55;1.45;;;0.60;;
75798;SDS011;65035;44.726;37.764;2023-04-03T06:08:02;1.25;;;0.55;;
75798;SDS011;65035;44.726;37.764;2023-04-03T06:09:05;1.52;;;0.63;;
75798;SDS011;65035;44.726;37.764;2023-04-03T06:10:10;2.22;;;0.57;;
75798;SDS011;65035;44.726;37.764;2023-04-03T06:11:13;1.27;;;0.85;;
75798;SDS011;65035;44.726;37.764;2023-04-03T06:12:17;1.38;;;0.43;;
75798;SDS011;65035;44.726;37.764;2023-04-03T06:13:20;1.20;;;0.38;;
75798;SDS011;65035;44.726;37.764;2023-04-03T06:14:25;1.70;;;0.50;;
75798;SDS011;65035;44.726;37.764;2023-04-03T06:15:29;1.30;;;0.20;;
75798;SDS011;65035;44.726;37.764;2023-04-03T06:16:32;1.92;;;0.68;;
75798;SDS011;65035;44.726;37.764;2023-04-03T06:18:39;1.65;;;0.30;;
75798;SDS011;65035;44.726;37.764;2023-04-03T06:19:44;1.17;;;0.30;;
75798;SDS011;65035;44.726;37.764;2023-04-03T06:21:50;2.10;;;0.60;;
75798;SDS011;65035;44.726;37.764;2023-04-03T06:22:54;1.88;;;0.43;;
75798;SDS011;65035;44.726;37.764;2023-04-03T06:23:57;1.30;;;0.32;;
75798;SDS011;65035;44.726;37.764;2023-04-03T06:25:00;2.10;;;0.40;;
75798;SDS011;65035;44.726;37.764;2023-04-03T06:26:03;1.15;;;0.40;;
75798;SDS011;65035;44.726;37.764;2023-04-03T06:27:08;1.73;;;0.50;;
75798;SDS011;65035;44.726;37.764;2023-04-03T06:28:13;2.10;;;0.32;;
75798;SDS011;65035;44.726;37.764;2023-04-03T06:29:17;1.73;;;0.32;;
75798;SDS011;65035;44.726;37.764;2023-04-03T06:30:20;1.20;;;0.28;;
75798;SDS011;65035;44.726;37.764;2023-04-03T06:31:23;1.73;;;0.60;;
75798;SDS011;65035;44.726;37.764;2023-04-03T06:32:26;1.30;;;0.43;;
75798;SDS011;65035;44.726;37.764;2023-04-03T06:33:29;1.25;;;0.30;;
75798;SDS011;65035;44.726;37.764;2023-04-03T06:34:32;2.03;;;0.47;;
75798;SDS011;65035;44.726;37.764;2023-04-03T06:35:35;1.65;;;0.25;;
75798;SDS011;65035;44.726;37.764;2023-04-03T06:36:40;1.20;;;0.30;;
75798;SDS011;65035;44.726;37.764;2023-04-03T06:37:44;1.63;;;0.43;;
75798;SDS011;65035;44.726;37.764;2023-04-03T06:38:47;1.63;;;0.43;;
75798;SDS011;65035;44.726;37.764;2023-04-03T06:40:54;1.50;;;0.20;;
75798;SDS011;65035;44.726;37.764;2023-04-03T06:41:58;1.42;;;0.38;;
75798;SDS011;65035;44.726;37.764;2023-04-03T06:43:11;1.38;;;0.30;;
75798;SDS011;65035;44.726;37.764;2023-04-03T06:44:14;1.40;;;0.32;;
75798;SDS011;65035;44.726;37.764;2023-04-03T06:45:18;1.65;;;0.63;;
75798;SDS011;65035;44.726;37.764;2023-04-03T06:47:24;1.30;;;0.63;;
75798;SDS011;65035;44.726;37.764;2023-04-03T06:48:27;1.00;;;0.40;;
75798;SDS011;65035;44.726;37.764;2023-04-03T06:50:35;2.22;;;0.43;;
75798;SDS011;65035;44.726;37.764;2023-04-03T06:51:38;1.10;;;0.35;;
75798;SDS011;65035;44.726;37.764;2023-04-03T06:52:41;1.35;;;0.30;;
75798;SDS011;65035;44.726;37.764;2023-04-03T06:54:48;1.92;;;0.60;;
75798;SDS011;65035;44.726;37.764;2023-04-03T06:55:51;1.95;;;0.40;;
75798;SDS011;65035;44.726;37.764;2023-04-03T06:56:53;1.42;;;0.90;;
75798;SDS011;65035;44.726;37.764;2023-04-03T06:57:56;1.55;;;0.25;;
75798;SDS011;65035;44.726;37.764;2023-04-03T06:58:59;0.82;;;0.30;;
75798;SDS011;65035;44.726;37.764;2023-04-03T07:00:03;1.13;;;0.38;;
75798;SDS011;65035;44.726;37.764;2023-04-03T07:01:07;2.35;;;0.43;;
75798;SDS011;65035;44.726;37.764;2023-04-03T07:02:13;1.77;;;0.55;;
75798;SDS011;65035;44.726;37.764;2023-04-03T07:03:16;1.85;;;0.32;;
75798;SDS011;65035;44.726;37.764;2023-04-03T07:04:18;1.70;;;0.35;;
75798;SDS011;65035;44.726;37.764;2023-04-03T07:05:22;1.52;;;0.57;;
75798;SDS011;65035;44.726;37.764;2023-04-03T07:06:27;1.70;;;0.43;;
75798;SDS011;65035;44.726;37.764;2023-04-03T07:07:32;1.40;;;0.22;;
75798;SDS011;65035;44.726;37.764;2023-04-03T07:08:36;1.75;;;0.63;;
75798;SDS011;65035;44.726;37.764;2023-04-03T07:09:39;1.40;;;0.13;;
75798;SDS011;65035;44.726;37.764;2023-04-03T07:10:43;2.00;;;0.55;;
75798;SDS011;65035;44.726;37.764;2023-04-03T07:11:45;1.20;;;0.32;;
75798;SDS011;65035;44.726;37.764;2023-04-03T07:12:51;1.13;;;0.25;;
75798;SDS011;65035;44.726;37.764;2023-04-03T07:13:54;1.85;;;0.32;;
75798;SDS011;65035;44.726;37.764;2023-04-03T07:15:00;2.58;;;0.63;;
75798;SDS011;65035;44.726;37.764;2023-04-03T07:17:09;2.63;;;0.55;;
75798;SDS011;65035;44.726;37.764;2023-04-03T07:18:12;1.30;;;0.63;;